Time;durP1;ratioP1;P1;durP2;ratioP2;P2;SDS_P1;SDS_P2;PMS_P1;PMS_P2;Temp;Humidity;BMP_temperature;BMP_pressure;BME280_temperature;BME280_humidity;BME280_pressure;Samples;Min_cycle;Max_cycle;Signal;HPM_P1;HPM_P2
2021/10/24 00:00:29;;;;;;;18.77;8.85;;;9.80;99.90;;;;;;4933573;29;20043;-79
2021/10/24 00:02:56;;;;;;;17.25;8.95;;;10.20;99.90;;;;;;4933096;29;20472;-82
2021/10/24 00:05:22;;;;;;;17.20;8.43;;;9.80;99.90;;;;;;4933560;29;20047;-79
2021/10/24 00:07:48;;;;;;;18.95;8.60;;;9.90;99.90;;;;;;4921815;29;20114;-81
2021/10/24 00:10:13;;;;;;;15.25;8.20;;;9.90;99.90;;;;;;4958689;28;20063;-80
2021/10/24 00:12:39;;;;;;;17.70;9.02;;;9.70;99.90;;;;;;4940946;28;20042;-81
2021/10/24 00:15:05;;;;;;;20.40;8.63;;;9.70;99.90;;;;;;4971496;28;20049;-79
2021/10/24 00:17:31;;;;;;;19.35;8.85;;;9.70;99.90;;;;;;4955271;28;20039;-81
2021/10/24 00:19:57;;;;;;;21.20;8.90;;;9.70;99.90;;;;;;4956234;28;20121;-80
2021/10/24 00:22:22;;;;;;;18.25;9.02;;;9.70;99.90;;;;;;4957652;28;20133;-79
2021/10/24 00:24:48;;;;;;;16.40;8.43;;;9.60;99.90;;;;;;4941466;28;20074;-80
2021/10/24 00:27:14;;;;;;;21.20;9.30;;;9.60;99.90;;;;;;4959815;28;20053;-80
2021/10/24 00:29:39;;;;;;;19.15;9.45;;;9.60;99.90;;;;;;4958654;28;20042;-79
2021/10/24 00:32:06;;;;;;;19.08;9.02;;;9.60;99.90;;;;;;4963180;28;20042;-81
2021/10/24 00:34:32;;;;;;;19.77;9.63;;;9.60;99.90;;;;;;4972069;28;20046;-80
2021/10/24 00:36:58;;;;;;;20.25;9.30;;;9.50;99.90;;;;;;4954738;28;20561;-80
2021/10/24 00:39:23;;;;;;;17.92;9.35;;;9.50;99.90;;;;;;4955746;28;20126;-80
2021/10/24 00:41:50;;;;;;;14.93;9.13;;;9.70;99.90;;;;;;4955440;28;20042;-80
2021/10/24 00:44:32;;;;;;;22.00;9.75;;;9.60;99.90;;;;;;4972662;28;20102;-78
2021/10/24 00:46:59;;;;;;;19.08;9.93;;;9.30;99.90;;;;;;4957044;28;20050;-81
2021/10/24 00:49:26;;;;;;;18.48;9.52;;;9.20;99.90;;;;;;4955524;28;20035;-82
2021/10/24 00:51:53;;;;;;;21.92;10.40;;;9.30;99.90;;;;;;4957185;28;20117;-81
2021/10/24 00:54:21;;;;;;;18.60;10.40;;;9.20;99.90;;;;;;4956253;28;20108;-78
2021/10/24 00:56:49;;;;;;;16.75;10.38;;;9.20;99.90;;;;;;4947028;28;20034;-79
2021/10/24 00:59:18;;;;;;;23.80;11.43;;;9.10;99.90;;;;;;4955118;28;20126;-80
2021/10/24 01:01:44;;;;;;;21.27;11.48;;;9.10;99.90;;;;;;4956714;28;20450;-79
2021/10/24 01:04:10;;;;;;;21.38;11.73;;;9.00;99.90;;;;;;4955184;28;20125;-79
2021/10/24 01:06:37;;;;;;;16.88;10.77;;;9.00;99.90;;;;;;4968750;28;20042;-79
2021/10/24 01:09:06;;;;;;;18.15;11.32;;;8.90;99.90;;;;;;4954798;28;20045;-80
2021/10/24 01:11:32;;;;;;;19.20;11.50;;;8.80;99.90;;;;;;4972063;28;20112;-80
2021/10/24 01:13:58;;;;;;;22.77;11.35;;;8.90;99.90;;;;;;4955674;28;20068;-79
2021/10/24 01:16:25;;;;;;;20.52;11.02;;;8.90;99.90;;;;;;4956571;28;20818;-79
2021/10/24 01:18:50;;;;;;;17.83;11.07;;;8.70;99.90;;;;;;4955871;28;20042;-81
2021/10/24 01:21:17;;;;;;;21.20;11.75;;;9.30;99.90;;;;;;4954720;28;20030;-81
2021/10/24 01:23:43;;;;;;;21.10;11.63;;;8.70;99.90;;;;;;4955294;28;20030;-81
2021/10/24 01:26:09;;;;;;;21.50;11.65;;;8.70;99.90;;;;;;4974192;28;20116;-80
2021/10/24 01:28:35;;;;;;;20.27;11.32;;;8.60;99.90;;;;;;4951659;28;20177;-80
2021/10/24 01:31:01;;;;;;;21.20;11.25;;;8.50;99.90;;;;;;4956948;28;20174;-80
2021/10/24 01:33:28;;;;;;;21.98;11.38;;;8.70;99.90;;;;;;4961947;28;20046;-79
2021/10/24 01:35:59;;;;;;;27.65;12.73;;;8.50;99.90;;;;;;4965649;28;20120;-79
2021/10/24 01:38:27;;;;;;;19.02;11.68;;;8.50;99.90;;;;;;4955130;28;20054;-79
2021/10/24 01:40:54;;;;;;;19.75;12.02;;;8.40;99.90;;;;;;4959772;28;20042;-79
2021/10/24 01:43:21;;;;;;;17.48;12.15;;;8.90;99.90;;;;;;4968481;28;20063;-79
2021/10/24 01:45:47;;;;;;;21.77;11.90;;;8.30;99.90;;;;;;4956174;28;20054;-80
2021/10/24 01:49:09;;;;;;;22.17;11.68;;;8.20;99.90;;;;;;4954177;28;20378;-79
2021/10/24 01:51:35;;;;;;;21.27;12.98;;;8.10;99.90;;;;;;4970980;28;20050;-78
2021/10/24 01:54:00;;;;;;;24.50;12.60;;;8.10;99.90;;;;;;4968541;28;20445;-81
2021/10/24 01:56:26;;;;;;;21.30;12.05;;;8.00;99.90;;;;;;4970943;28;20125;-79
2021/10/24 01:58:52;;;;;;;20.65;11.85;;;8.00;99.90;;;;;;4955448;28;20133;-77
2021/10/24 02:01:18;;;;;;;23.92;11.55;;;7.90;99.90;;;;;;4960369;28;20050;-78
2021/10/24 02:03:44;;;;;;;19.77;11.93;;;8.30;99.90;;;;;;4954403;28;20047;-78
2021/10/24 02:06:09;;;;;;;17.98;11.43;;;8.20;99.90;;;;;;4970890;28;20185;-81
2021/10/24 02:08:35;;;;;;;21.88;11.93;;;7.80;99.90;;;;;;4962218;28;20043;-81
2021/10/24 02:11:01;;;;;;;22.92;11.73;;;7.70;99.90;;;;;;4965756;28;20351;-80
2021/10/24 02:13:27;;;;;;;20.63;11.27;;;8.00;99.90;;;;;;4939448;28;20401;-81
2021/10/24 02:15:52;;;;;;;26.35;11.80;;;7.70;99.90;;;;;;4962207;28;20412;-79
2021/10/24 02:18:18;;;;;;;18.75;11.38;;;7.90;99.90;;;;;;4974029;28;20050;-80
2021/10/24 02:20:44;;;;;;;17.85;11.45;;;7.60;99.90;;;;;;4958599;28;20031;-80
2021/10/24 02:23:09;;;;;;;20.65;11.40;;;7.60;99.90;;;;;;4951111;28;20442;-81
2021/10/24 02:25:38;;;;;;;17.75;11.18;;;7.50;99.90;;;;;;4981820;28;20137;-79
2021/10/24 02:28:04;;;;;;;19.90;11.85;;;7.80;99.90;;;;;;4971842;28;20042;-79
2021/10/24 02:30:30;;;;;;;19.60;11.52;;;7.40;99.90;;;;;;4958499;28;20122;-78
2021/10/24 02:32:56;;;;;;;21.45;11.75;;;7.40;99.90;;;;;;4972223;28;20922;-80
2021/10/24 02:35:25;;;;;;;21.92;11.68;;;7.30;99.90;;;;;;4960137;28;20074;-79
2021/10/24 02:37:51;;;;;;;20.27;12.52;;;7.70;99.90;;;;;;4956846;28;20049;-80
2021/10/24 02:40:18;;;;;;;23.10;13.65;;;7.30;99.90;;;;;;4964448;28;20038;-78
2021/10/24 02:42:43;;;;;;;24.25;13.73;;;7.20;99.90;;;;;;4965433;28;20122;-78
2021/10/24 02:45:09;;;;;;;21.02;13.38;;;7.80;99.90;;;;;;4958961;28;21568;-80
2021/10/24 02:47:35;;;;;;;23.20;13.80;;;7.20;99.90;;;;;;4956566;28;20043;-79
2021/10/24 02:50:02;;;;;;;24.25;13.50;;;7.20;99.90;;;;;;4957586;28;20081;-79
2021/10/24 02:52:28;;;;;;;21.63;13.85;;;7.10;99.90;;;;;;4964299;28;20156;-79
2021/10/24 02:54:54;;;;;;;22.35;14.23;;;7.10;99.90;;;;;;4957895;28;20145;-79
2021/10/24 02:57:19;;;;;;;29.88;14.95;;;7.10;99.90;;;;;;4963616;28;20066;-80
2021/10/24 02:59:45;;;;;;;24.63;14.05;;;7.00;99.90;;;;;;4959008;28;20047;-79
2021/10/24 03:02:11;;;;;;;24.02;14.07;;;7.60;99.90;;;;;;4957664;28;20405;-80
2021/10/24 03:04:36;;;;;;;23.30;14.35;;;7.10;99.90;;;;;;4957192;28;20050;-80
2021/10/24 03:07:02;;;;;;;24.98;15.32;;;7.00;99.90;;;;;;4962454;28;20045;-79
2021/10/24 03:09:28;;;;;;;26.15;14.50;;;6.90;99.90;;;;;;4964619;28;20425;-78
2021/10/24 03:11:54;;;;;;;21.23;14.57;;;7.00;99.90;;;;;;4963103;28;20414;-78
2021/10/24 03:14:19;;;;;;;23.85;15.07;;;6.90;99.90;;;;;;4961786;28;20126;-78
2021/10/24 03:16:45;;;;;;;22.58;14.40;;;6.90;99.90;;;;;;4955719;28;20539;-79
2021/10/24 03:19:12;;;;;;;21.75;15.32;;;7.20;99.90;;;;;;4957995;28;20381;-80
2021/10/24 03:21:38;;;;;;;25.20;15.15;;;6.80;99.90;;;;;;4974219;28;20117;-78
2021/10/24 03:24:06;;;;;;;27.77;15.05;;;6.90;99.90;;;;;;4957430;28;20438;-81
2021/10/24 03:26:33;;;;;;;21.70;14.25;;;6.80;99.90;;;;;;4956625;28;20058;-81
2021/10/24 03:28:59;;;;;;;26.80;15.73;;;6.80;99.90;;;;;;4958339;28;20550;-79
2021/10/24 03:31:25;;;;;;;21.33;14.82;;;6.80;99.90;;;;;;4956775;28;20092;-79
2021/10/24 03:33:51;;;;;;;23.23;16.13;;;7.30;99.90;;;;;;4973898;28;20185;-79
2021/10/24 03:36:17;;;;;;;26.38;15.43;;;6.80;99.90;;;;;;4956927;28;20140;-81
2021/10/24 03:38:43;;;;;;;25.40;16.10;;;6.70;99.90;;;;;;4961803;28;20451;-81
2021/10/24 03:41:11;;;;;;;26.10;15.68;;;6.70;99.90;;;;;;4956570;28;20082;-81
2021/10/24 03:43:37;;;;;;;29.50;17.48;;;6.70;99.90;;;;;;4963086;28;20042;-80
2021/10/24 03:46:02;;;;;;;33.10;17.08;;;6.70;99.90;;;;;;4958238;28;20042;-80
2021/10/24 03:48:28;;;;;;;30.45;16.15;;;6.70;99.90;;;;;;4958671;28;20133;-81
2021/10/24 03:50:54;;;;;;;28.50;16.75;;;6.60;99.90;;;;;;4970951;28;20039;-79
2021/10/24 03:53:19;;;;;;;32.53;17.15;;;6.60;99.90;;;;;;4974207;28;20047;-80
2021/10/24 03:55:48;;;;;;;30.05;16.45;;;6.60;99.90;;;;;;4956966;28;20039;-79
2021/10/24 03:58:15;;;;;;;32.40;16.75;;;6.60;99.90;;;;;;4967706;28;20394;-81
2021/10/24 04:00:41;;;;;;;27.17;16.50;;;6.60;99.90;;;;;;4957477;28;20125;-81
2021/10/24 04:03:07;;;;;;;26.10;16.77;;;7.10;99.90;;;;;;4987494;28;20046;-78
2021/10/24 04:05:34;;;;;;;32.15;17.45;;;6.50;99.90;;;;;;4944170;28;20046;-81
2021/10/24 04:08:00;;;;;;;29.90;16.38;;;6.50;99.90;;;;;;4955189;28;20528;-79
2021/10/24 04:10:27;;;;;;;24.73;16.55;;;7.20;99.90;;;;;;4955952;28;20142;-79
2021/10/24 04:12:54;;;;;;;32.38;17.45;;;6.50;99.90;;;;;;4980472;28;20565;-80
2021/10/24 04:15:21;;;;;;;29.13;17.48;;;6.50;99.90;;;;;;4957672;28;20039;-81
2021/10/24 04:17:47;;;;;;;30.42;17.77;;;6.40;99.90;;;;;;4958073;28;20121;-82
2021/10/24 04:20:16;;;;;;;26.20;16.80;;;6.30;99.90;;;;;;4955677;28;20633;-82
2021/10/24 04:22:41;;;;;;;29.48;17.85;;;7.10;99.90;;;;;;4955562;28;20057;-79
2021/10/24 04:25:10;;;;;;;29.92;16.65;;;6.40;99.90;;;;;;4952918;28;20046;-78
2021/10/24 04:27:37;;;;;;;31.23;17.13;;;6.30;99.90;;;;;;4956196;28;20046;-80
2021/10/24 04:30:05;;;;;;;28.73;17.33;;;6.90;99.90;;;;;;4955689;28;20065;-80
2021/10/24 04:32:31;;;;;;;28.30;17.48;;;6.30;99.90;;;;;;4940800;28;20054;-78
2021/10/24 04:34:57;;;;;;;29.55;17.63;;;6.20;99.90;;;;;;4955747;28;20482;-79
2021/10/24 04:37:22;;;;;;;25.35;16.48;;;6.20;99.90;;;;;;4957352;28;20049;-81
2021/10/24 04:39:48;;;;;;;26.38;17.13;;;6.20;99.90;;;;;;4960436;28;20046;-78
2021/10/24 04:42:14;;;;;;;36.05;17.15;;;6.20;99.90;;;;;;4972119;28;20050;-78
2021/10/24 04:44:39;;;;;;;27.38;17.23;;;6.30;99.90;;;;;;4971093;28;20049;-79
2021/10/24 04:47:05;;;;;;;30.20;16.38;;;6.20;99.90;;;;;;4954171;28;20619;-79
2021/10/24 04:49:31;;;;;;;34.63;17.38;;;6.10;99.90;;;;;;4951520;28;21023;-80
2021/10/24 04:51:58;;;;;;;28.85;16.83;;;6.30;99.90;;;;;;4946836;28;20042;-81
2021/10/24 04:54:24;;;;;;;29.52;18.02;;;6.10;99.90;;;;;;4957595;28;20460;-78
2021/10/24 04:56:50;;;;;;;30.88;17.45;;;6.00;99.90;;;;;;4968192;28;20130;-80
2021/10/24 04:59:17;;;;;;;28.45;16.77;;;6.00;99.90;;;;;;4956123;28;20043;-78
2021/10/24 05:01:43;;;;;;;27.50;17.00;;;6.10;99.90;;;;;;4966361;28;20092;-80
2021/10/24 05:04:10;;;;;;;30.77;16.75;;;6.10;99.90;;;;;;4955868;28;20066;-79
2021/10/24 05:06:36;;;;;;;30.80;17.08;;;6.00;99.90;;;;;;4957195;28;20040;-79
2021/10/24 05:09:02;;;;;;;33.38;17.30;;;6.30;99.90;;;;;;4957406;28;20043;-78
2021/10/24 05:11:27;;;;;;;29.02;17.42;;;6.00;99.90;;;;;;4960961;28;20046;-79
2021/10/24 05:13:53;;;;;;;28.13;16.67;;;6.00;99.90;;;;;;4970836;28;20042;-81
2021/10/24 05:16:19;;;;;;;29.17;16.35;;;6.40;99.90;;;;;;4939016;28;20582;-80
2021/10/24 05:18:45;;;;;;;27.85;16.58;;;5.90;99.90;;;;;;4942911;28;20055;-80
2021/10/24 05:21:10;;;;;;;29.70;16.63;;;6.10;99.90;;;;;;4951447;28;20045;-79
2021/10/24 05:23:36;;;;;;;28.83;16.67;;;6.30;99.90;;;;;;4963486;28;20497;-77
2021/10/24 05:26:04;;;;;;;26.13;17.05;;;5.80;99.90;;;;;;4954441;28;20078;-79
2021/10/24 05:28:31;;;;;;;23.67;16.15;;;5.70;99.90;;;;;;4980477;28;20053;-79
2021/10/24 05:30:57;;;;;;;33.13;16.48;;;5.80;99.90;;;;;;4961469;28;20556;-78
2021/10/24 05:33:22;;;;;;;28.52;16.55;;;5.70;99.90;;;;;;4956299;28;20043;-79
2021/10/24 05:35:49;;;;;;;26.88;16.27;;;5.70;99.90;;;;;;4938019;28;20054;-79
2021/10/24 05:38:15;;;;;;;29.00;16.50;;;5.60;99.90;;;;;;4972195;28;20042;-78
2021/10/24 05:40:41;;;;;;;30.45;17.38;;;5.70;99.90;;;;;;4955210;28;20068;-78
2021/10/24 05:43:07;;;;;;;29.95;17.05;;;5.90;99.90;;;;;;4954639;28;20062;-79
2021/10/24 05:45:32;;;;;;;30.77;16.48;;;5.60;99.90;;;;;;4954160;28;20058;-77
2021/10/24 05:47:58;;;;;;;27.75;17.08;;;5.60;99.90;;;;;;4955167;28;20367;-80
2021/10/24 05:50:23;;;;;;;29.70;16.58;;;5.60;99.90;;;;;;4956877;28;20394;-80
2021/10/24 05:52:49;;;;;;;26.92;16.85;;;5.60;99.90;;;;;;4958005;28;20500;-79
2021/10/24 05:55:15;;;;;;;26.83;16.88;;;5.80;99.90;;;;;;4974325;28;20052;-76
2021/10/24 05:57:41;;;;;;;27.17;16.35;;;5.60;99.90;;;;;;4958296;28;20042;-78
2021/10/24 06:00:07;;;;;;;28.33;16.02;;;5.60;99.90;;;;;;4958931;28;20460;-80
2021/10/24 06:02:32;;;;;;;27.17;16.67;;;5.50;99.90;;;;;;4958297;28;20041;-78
2021/10/24 06:04:59;;;;;;;29.80;17.02;;;5.60;99.90;;;;;;4958487;28;20043;-79
2021/10/24 06:07:25;;;;;;;24.40;16.30;;;5.90;99.90;;;;;;4956661;28;20470;-80
2021/10/24 06:09:55;;;;;;;27.42;16.48;;;5.50;99.90;;;;;;4956574;28;20814;-75
2021/10/24 06:15:04;;;;;;;26.92;16.67;;;5.50;99.90;;;;;;4972704;28;20062;-75
2021/10/24 06:17:30;;;;;;;24.23;13.77;;;5.50;99.90;;;;;;4957041;28;20085;-75
2021/10/24 06:19:56;;;;;;;26.35;16.08;;;6.20;99.90;;;;;;4957386;28;20039;-79
2021/10/24 06:22:22;;;;;;;21.13;14.95;;;5.80;99.90;;;;;;4956897;28;20101;-80
2021/10/24 06:24:47;;;;;;;28.58;15.98;;;5.70;99.90;;;;;;4956374;28;20410;-78
2021/10/24 06:27:16;;;;;;;28.95;16.08;;;5.70;99.90;;;;;;4970396;28;20074;-78
2021/10/24 06:29:44;;;;;;;30.67;16.77;;;5.60;99.90;;;;;;4958492;28;20121;-80
2021/10/24 06:32:25;;;;;;;29.05;16.15;;;5.60;99.90;;;;;;4957747;28;20050;-78
2021/10/24 06:39:02;;;;;;;28.08;16.17;;;6.20;99.90;;;;;;4895840;29;20037;-81
2021/10/24 06:41:50;;;;;;;25.35;15.80;;;6.20;99.90;;;;;;4804157;29;20703;-79
2021/10/24 06:44:45;;;;;;;25.20;15.65;;;5.40;99.90;;;;;;4804874;29;20141;-79
2021/10/24 06:47:10;;;;;;;26.90;15.65;;;5.50;99.90;;;;;;4788292;29;20055;-79
2021/10/24 06:49:53;;;;;;;23.67;15.48;;;6.10;99.90;;;;;;4775831;29;20103;-80
2021/10/24 06:52:25;;;;;;;26.38;16.08;;;6.20;99.90;;;;;;4782129;29;20053;-78
2021/10/24 06:55:02;;;;;;;25.73;16.45;;;5.90;99.90;;;;;;4769442;29;20462;-78
2021/10/24 06:57:53;;;;;;;21.83;15.20;;;5.50;99.90;;;;;;4773761;29;20047;-79
2021/10/24 07:00:25;;;;;;;28.42;16.27;;;5.50;99.90;;;;;;4783633;29;20107;-81
2021/10/24 07:02:52;;;;;;;24.73;14.68;;;5.60;99.90;;;;;;4802987;29;20134;-79
2021/10/24 07:05:19;;;;;;;23.13;15.60;;;6.20;99.90;;;;;;4789367;29;20090;-81
2021/10/24 07:07:45;;;;;;;24.38;15.60;;;5.60;99.90;;;;;;4785485;29;20066;-81
2021/10/24 07:10:13;;;;;;;23.30;15.10;;;6.20;99.90;;;;;;4774947;29;20087;-79
2021/10/24 07:12:39;;;;;;;26.48;16.40;;;6.20;99.90;;;;;;4805139;29;20109;-82
2021/10/24 07:15:07;;;;;;;28.80;15.43;;;6.40;99.90;;;;;;4821334;29;20133;-79
2021/10/24 07:17:32;;;;;;;29.10;15.23;;;5.70;99.90;;;;;;4854021;29;20048;-80
2021/10/24 07:19:58;;;;;;;19.35;13.77;;;5.70;99.90;;;;;;4947628;28;20056;-80
2021/10/24 07:22:24;;;;;;;21.75;14.90;;;6.10;99.90;;;;;;4954817;28;20471;-76
2021/10/24 07:24:50;;;;;;;21.45;14.90;;;6.00;99.90;;;;;;4955582;28;20046;-78
2021/10/24 07:27:16;;;;;;;26.45;14.75;;;6.00;99.90;;;;;;4955121;28;20316;-77
2021/10/24 07:29:42;;;;;;;25.30;15.65;;;6.00;99.90;;;;;;4955635;28;20035;-77
2021/10/24 07:32:08;;;;;;;25.75;14.70;;;6.00;99.90;;;;;;4955914;28;20126;-75
2021/10/24 07:34:34;;;;;;;27.20;15.02;;;6.00;99.90;;;;;;4956774;28;20070;-74
2021/10/24 07:36:59;;;;;;;24.50;14.68;;;6.00;99.90;;;;;;4957177;28;20384;-74
2021/10/24 07:39:25;;;;;;;25.95;14.95;;;6.00;99.90;;;;;;4960436;28;20072;-75
2021/10/24 07:41:52;;;;;;;25.83;14.35;;;6.10;99.90;;;;;;4956605;28;20054;-74
2021/10/24 07:44:19;;;;;;;24.90;15.18;;;6.10;99.90;;;;;;4957171;28;20039;-75
2021/10/24 07:46:46;;;;;;;27.30;14.43;;;6.20;99.90;;;;;;4940016;28;20462;-75
2021/10/24 07:49:13;;;;;;;28.27;14.68;;;6.20;99.90;;;;;;4954990;28;20117;-74
2021/10/24 07:51:39;;;;;;;26.98;15.02;;;6.30;99.90;;;;;;4953109;28;20456;-77
2021/10/24 07:54:06;;;;;;;28.48;15.68;;;6.40;99.90;;;;;;4941944;28;20058;-78
2021/10/24 07:56:33;;;;;;;25.98;13.77;;;6.40;99.90;;;;;;4939741;28;20367;-77
2021/10/24 07:59:08;;;;;;;23.05;14.10;;;6.40;99.90;;;;;;4939147;28;20174;-78
2021/10/24 08:01:34;;;;;;;23.30;14.15;;;6.50;99.90;;;;;;4957033;28;20047;-76
2021/10/24 08:04:00;;;;;;;22.70;14.00;;;6.50;99.90;;;;;;4956762;28;20082;-77
2021/10/24 08:06:26;;;;;;;22.00;13.98;;;6.60;99.90;;;;;;4955836;28;20077;-78
2021/10/24 08:08:52;;;;;;;30.25;13.93;;;6.60;99.90;;;;;;4972975;28;20050;-77
2021/10/24 08:11:18;;;;;;;20.15;12.80;;;6.60;99.90;;;;;;4972567;28;20070;-76
2021/10/24 08:13:44;;;;;;;22.17;13.35;;;6.60;99.90;;;;;;4952949;28;20043;-76
2021/10/24 08:16:10;;;;;;;21.42;12.90;;;6.70;99.90;;;;;;4972198;28;20094;-77
2021/10/24 08:18:36;;;;;;;22.02;12.82;;;6.80;99.90;;;;;;4957308;28;20398;-77
2021/10/24 08:21:02;;;;;;;23.65;13.57;;;6.90;99.90;;;;;;4956663;28;20038;-76
2021/10/24 08:23:28;;;;;;;24.10;13.15;;;6.90;99.90;;;;;;4972564;28;20061;-76
2021/10/24 08:25:55;;;;;;;17.88;11.88;;;6.90;99.90;;;;;;4956665;28;20051;-77
2021/10/24 08:28:21;;;;;;;27.88;12.73;;;7.00;99.90;;;;;;4972038;28;20086;-78
2021/10/24 08:30:48;;;;;;;23.25;12.55;;;7.10;99.90;;;;;;4956329;28;20074;-77
2021/10/24 08:33:14;;;;;;;23.35;12.18;;;7.10;99.90;;;;;;4956207;28;20069;-78
2021/10/24 08:39:05;;;;;;;19.90;11.95;;;7.20;99.90;;;;;;4953410;29;20051;-78
2021/10/24 08:41:32;;;;;;;18.65;11.82;;;7.50;99.90;;;;;;4950691;28;20038;-77
2021/10/24 08:44:02;;;;;;;20.25;11.23;;;7.40;99.90;;;;;;4956483;28;20518;-77
2021/10/24 08:46:28;;;;;;;18.58;10.85;;;7.40;99.90;;;;;;4955713;28;20035;-78
2021/10/24 08:48:56;;;;;;;19.10;11.32;;;7.50;99.90;;;;;;4956684;28;20046;-77
2021/10/24 08:51:25;;;;;;;24.73;11.70;;;7.60;99.90;;;;;;4954563;28;20034;-77
2021/10/24 08:53:51;;;;;;;18.95;11.07;;;7.70;99.90;;;;;;4956069;28;20390;-78
2021/10/24 08:56:18;;;;;;;22.60;11.30;;;7.70;99.90;;;;;;4971950;28;20051;-77
2021/10/24 08:58:45;;;;;;;16.65;10.98;;;7.80;99.90;;;;;;4956344;28;20089;-77
2021/10/24 09:01:12;;;;;;;21.05;11.10;;;7.80;99.90;;;;;;4954208;28;20477;-77
2021/10/24 09:03:38;;;;;;;18.10;9.82;;;8.00;99.90;;;;;;4952630;28;20054;-77
2021/10/24 09:06:43;;;;;;;17.92;11.02;;;8.00;99.90;;;;;;4971184;28;20038;-77
2021/10/24 09:09:20;;;;;;;16.73;10.48;;;8.10;99.90;;;;;;4955278;28;20376;-76
2021/10/24 09:12:03;;;;;;;22.45;11.45;;;8.20;99.90;;;;;;4955733;28;20117;-77
2021/10/24 09:14:48;;;;;;;18.52;10.20;;;8.20;99.90;;;;;;4972131;28;20455;-78
2021/10/24 09:17:18;;;;;;;;;;;8.30;99.90;;;;;;4955361;28;20066;-77
2021/10/24 09:19:49;;;;;;;18.13;10.10;;;8.40;99.90;;;;;;4955743;28;19924;-77
2021/10/24 09:22:18;;;;;;;23.05;10.90;;;8.50;99.90;;;;;;4955216;28;20129;-77
2021/10/24 09:25:09;;;;;;;17.40;9.88;;;8.60;99.90;;;;;;4955289;28;20086;-77
2021/10/24 09:27:56;;;;;;;17.95;10.40;;;8.70;99.90;;;;;;4939116;28;20043;-77
2021/10/24 09:30:36;;;;;;;19.23;9.23;;;8.80;99.90;;;;;;4972405;28;20034;-76
2021/10/24 09:33:09;;;;;;;20.63;9.43;;;8.90;99.90;;;;;;4956051;28;20042;-77
2021/10/24 09:35:53;;;;;;;14.20;9.15;;;8.90;99.90;;;;;;4955509;28;20042;-76
2021/10/24 09:38:27;;;;;;;17.27;9.75;;;9.10;99.90;;;;;;4954829;28;20062;-77
2021/10/24 09:40:56;;;;;;;16.07;9.33;;;9.50;99.90;;;;;;4955372;28;20085;-77
2021/10/24 09:43:29;;;;;;;19.35;9.00;;;9.20;99.90;;;;;;4972616;28;20073;-77
2021/10/24 09:45:57;;;;;;;16.50;9.32;;;9.30;99.90;;;;;;4955649;28;20125;-78
2021/10/24 09:48:31;;;;;;;16.38;8.80;;;9.40;99.90;;;;;;4971294;28;20195;-78
2021/10/24 09:51:11;;;;;;;15.85;9.48;;;9.50;99.90;;;;;;4954679;28;20506;-77
2021/10/24 09:53:39;;;;;;;14.38;8.88;;;9.60;99.90;;;;;;4954772;28;20043;-77
2021/10/24 09:56:05;;;;;;;16.38;8.95;;;9.80;99.90;;;;;;4955152;28;20129;-78
2021/10/24 09:58:36;;;;;;;18.05;8.95;;;10.00;99.90;;;;;;4955180;28;20038;-77
2021/10/24 10:01:03;;;;;;;15.35;8.60;;;10.10;99.90;;;;;;4955080;28;20473;-77
2021/10/24 10:03:29;;;;;;;13.90;8.05;;;10.20;99.90;;;;;;4955403;28;20035;-77
2021/10/24 10:05:57;;;;;;;15.75;8.57;;;10.30;99.90;;;;;;4954378;28;20402;-77
2021/10/24 10:08:23;;;;;;;16.52;8.68;;;10.40;99.90;;;;;;4955151;28;20046;-77
2021/10/24 10:11:21;;;;;;;18.33;8.27;;;10.50;99.90;;;;;;4954204;28;20105;-78
2021/10/24 10:13:54;;;;;;;14.27;8.15;;;10.70;99.90;;;;;;4954374;28;20043;-77
2021/10/24 10:16:20;;;;;;;18.75;8.00;;;10.80;99.90;;;;;;4954782;28;20118;-78
2021/10/24 10:18:58;;;;;;;12.73;7.63;;;10.90;99.90;;;;;;4955301;28;20137;-77
2021/10/24 10:21:31;;;;;;;14.38;7.95;;;11.20;99.90;;;;;;4946763;28;21306;-77
2021/10/24 10:23:58;;;;;;;12.80;7.60;;;11.30;99.90;;;;;;4940343;28;20047;-77
2021/10/24 10:26:32;;;;;;;14.80;7.85;;;11.40;99.90;;;;;;4971060;28;20390;-78
2021/10/24 10:28:59;;;;;;;12.52;7.45;;;11.50;99.90;;;;;;4971518;28;20054;-77
2021/10/24 10:31:25;;;;;;;14.40;7.35;;;11.60;99.90;;;;;;4955625;28;20126;-78
2021/10/24 10:33:59;;;;;;;12.18;7.47;;;11.70;99.90;;;;;;4954100;28;20456;-77
2021/10/24 10:36:45;;;;;;;13.15;7.60;;;11.80;99.90;;;;;;4953663;28;20035;-77
2021/10/24 10:39:44;;;;;;;14.57;7.50;;;12.00;99.90;;;;;;4958368;28;20415;-77
2021/10/24 10:42:28;;;;;;;12.98;7.38;;;12.10;99.90;;;;;;4881444;29;20067;-77
2021/10/24 10:45:15;;;;;;;14.45;6.93;;;12.20;99.90;;;;;;4897467;29;20055;-77
2021/10/24 10:47:59;;;;;;;12.73;7.20;;;12.30;99.90;;;;;;4895871;29;20049;-77
2021/10/24 10:50:27;;;;;;;15.35;6.55;;;12.40;99.90;;;;;;4881659;29;20515;-77
2021/10/24 10:52:54;;;;;;;12.93;6.68;;;12.60;99.90;;;;;;4880093;29;20049;-77
2021/10/24 10:55:20;;;;;;;13.10;6.93;;;12.60;99.90;;;;;;4881368;29;20055;-78
2021/10/24 10:57:46;;;;;;;11.10;6.70;;;12.70;99.90;;;;;;4879919;29;20044;-78
2021/10/24 11:00:36;;;;;;;12.45;6.22;;;12.90;99.90;;;;;;4881007;29;20052;-78
2021/10/24 11:03:03;;;;;;;9.40;5.80;;;12.90;99.90;;;;;;4881373;29;20051;-78
2021/10/24 11:05:52;;;;;;;10.88;6.00;;;13.00;99.90;;;;;;4880932;29;20056;-78
2021/10/24 11:08:49;;;;;;;7.78;5.13;;;13.10;99.90;;;;;;4867312;29;20044;-78
2021/10/24 11:11:41;;;;;;;15.27;5.60;;;13.30;99.90;;;;;;4880727;29;20404;-78
2021/10/24 11:14:15;;;;;;;11.85;5.90;;;13.20;99.90;;;;;;4881093;29;20511;-78
2021/10/24 11:16:51;;;;;;;11.25;5.95;;;13.50;99.90;;;;;;4868888;29;20129;-78
2021/10/24 11:19:28;;;;;;;8.55;5.38;;;13.60;99.90;;;;;;4945632;28;20327;-78
2021/10/24 11:21:59;;;;;;;6.55;4.68;;;13.60;99.90;;;;;;4957308;28;20105;-79
2021/10/24 11:24:39;;;;;;;13.38;4.88;;;13.80;99.90;;;;;;4974069;28;20046;-79
2021/10/24 11:27:08;;;;;;;9.32;4.72;;;13.80;99.90;;;;;;4957801;28;20050;-78
2021/10/24 11:29:35;;;;;;;9.68;4.22;;;14.00;99.90;;;;;;4974347;28;20050;-78
2021/10/24 11:32:35;;;;;;;10.57;5.22;;;14.10;99.90;;;;;;4956392;28;20137;-78
2021/10/24 11:35:10;;;;;;;9.93;4.97;;;14.10;99.90;;;;;;4938888;29;20074;-78
2021/10/24 11:37:45;;;;;;;8.60;4.80;;;14.20;99.90;;;;;;4947097;28;20548;-78
2021/10/24 11:40:30;;;;;;;9.40;4.43;;;14.10;99.90;;;;;;4972699;28;20042;-78
2021/10/24 11:43:05;;;;;;;6.38;4.18;;;14.40;99.90;;;;;;4957302;28;20126;-77
2021/10/24 11:45:35;;;;;;;6.57;4.32;;;14.60;99.90;;;;;;4956931;28;20116;-78
2021/10/24 11:48:09;;;;;;;6.90;4.38;;;14.70;99.90;;;;;;4956892;28;20038;-78
2021/10/24 11:50:46;;;;;;;8.00;4.38;;;14.70;99.90;;;;;;4971877;28;20039;-79
2021/10/24 11:53:19;;;;;;;10.38;5.15;;;14.80;99.90;;;;;;4956210;28;20362;-77
2021/10/24 11:55:49;;;;;;;9.20;5.10;;;15.00;99.90;;;;;;4956926;28;20173;-78
2021/10/24 11:58:46;;;;;;;6.60;4.30;;;14.80;99.90;;;;;;4941094;28;20105;-78
2021/10/24 12:01:15;;;;;;;8.55;3.90;;;15.10;99.90;;;;;;4956858;28;20050;-77
2021/10/24 12:03:51;;;;;;;9.57;3.90;;;15.10;99.90;;;;;;4956614;28;20382;-78
2021/10/24 12:06:17;;;;;;;6.65;3.63;;;15.20;99.90;;;;;;4955818;28;20458;-78
2021/10/24 12:08:50;;;;;;;8.23;3.88;;;15.20;99.90;;;;;;4972922;28;20057;-78
2021/10/24 12:11:42;;;;;;;9.18;4.30;;;15.40;99.90;;;;;;4953541;28;20046;-78
2021/10/24 12:14:12;;;;;;;9.65;3.92;;;15.40;99.90;;;;;;4971836;28;20046;-78
2021/10/24 12:16:41;;;;;;;9.98;3.70;;;15.40;99.90;;;;;;4956293;28;20409;-78
2021/10/24 12:19:12;;;;;;;6.93;3.83;;;15.50;99.90;;;;;;4956197;28;20094;-78
2021/10/24 12:21:39;;;;;;;7.75;3.65;;;15.50;99.90;;;;;;4955653;28;20043;-79
2021/10/24 12:24:17;;;;;;;5.55;3.40;;;15.50;99.90;;;;;;4955117;28;20039;-78
2021/10/24 12:26:42;;;;;;;7.93;3.40;;;15.60;99.90;;;;;;4953691;28;20038;-79
2021/10/24 12:29:18;;;;;;;6.40;3.60;;;15.70;99.90;;;;;;4971805;28;20054;-78
2021/10/24 12:32:11;;;;;;;8.10;4.03;;;15.70;99.90;;;;;;4956084;28;20054;-77
2021/10/24 12:34:55;;;;;;;6.47;3.85;;;15.80;99.90;;;;;;4956132;28;20042;-79
2021/10/24 12:37:20;;;;;;;7.63;3.88;;;15.80;99.90;;;;;;4954792;28;20038;-79
2021/10/24 12:39:46;;;;;;;8.63;4.10;;;15.90;99.90;;;;;;4955450;28;20042;-78
2021/10/24 12:42:21;;;;;;;6.70;3.88;;;15.90;99.90;;;;;;4955433;28;20126;-77
2021/10/24 12:44:47;;;;;;;6.68;3.67;;;15.90;99.90;;;;;;4956034;28;20051;-78
2021/10/24 12:47:16;;;;;;;5.47;3.55;;;16.00;99.90;;;;;;4955488;28;20178;-79
2021/10/24 12:49:53;;;;;;;6.90;3.75;;;15.90;99.90;;;;;;4939338;28;20319;-78
2021/10/24 12:52:19;;;;;;;7.45;3.70;;;15.70;99.90;;;;;;4954999;28;20073;-78
2021/10/24 12:54:56;;;;;;;11.13;3.80;;;15.50;99.90;;;;;;4973668;28;20047;-77
2021/10/24 12:57:22;;;;;;;6.30;3.80;;;15.60;99.90;;;;;;4955614;28;20397;-79
2021/10/24 12:59:47;;;;;;;7.63;3.95;;;15.80;99.90;;;;;;4954686;28;20053;-78
2021/10/24 13:02:14;;;;;;;9.10;4.30;;;15.90;99.90;;;;;;4954999;28;20054;-78